Toyo Maru — JI3710 — position and weather

sailwx.info

Track history (hours):
 
Tides and Currents Weather Stations Pressure Air Temp Water Temp Dewpoint Dewpoint Depression Visibility Wind Speed Wind Dir Waves Ship Positions

Toyo Maru

Last reported at 2014-Oct-01 09:34 UTC. Time now 2014-Oct-01 10:31 UTC.
Position N 35°23' E 139°42'.

Length 125 m; draft 6 m.

Type: Cargo ship. MMSI: 431401953.

Date/timePositionNaut miles runAvg speedWind from/ knotsBaromVisibWave heightAir tempDewpointWater temp
2014-Oct-01 09:34N 35°23' E 139°42'17 1.4
2014-Sep-30 21:09N 35°33' E 139°59'812.9
2014-Sep-30 20:33N 35°28' E 139°52'1312.5
2014-Sep-30 19:33N 35°17' E 139°45'1414.3
2014-Sep-30 18:33N 35°03' E 139°42'249 9.1
2014-Sep-29 15:19N 34°04' E 134°48'12113.8
2014-Sep-29 06:33N 34°16' E 132°22'8 8.0
2014-Sep-29 05:33N 34°21' E 132°29'0 0.0
2014-Sep-29 04:32N 34°21' E 132°29'0 0.0
2014-Sep-29 03:32N 34°21' E 132°29'0 0.0
2014-Sep-29 02:32N 34°21' E 132°29'0 0.0
2014-Sep-29 01:32N 34°21' E 132°29'0 0.0
2014-Sep-29 00:32N 34°21' E 132°29'0 0.0
2014-Sep-28 23:32N 34°21' E 132°29'0 0.0
2014-Sep-28 22:32N 34°21' E 132°29'0 0.0
2014-Sep-28 21:32N 34°21' E 132°29'0 0.0
2014-Sep-28 20:32N 34°21' E 132°29'0 0.0
2014-Sep-28 19:32N 34°21' E 132°29'0 0.0
2014-Sep-28 18:32N 34°21' E 132°29'0 0.0
2014-Sep-28 17:31N 34°21' E 132°29'0 0.0
2014-Sep-28 16:31N 34°21' E 132°29'7 7.6
2014-Sep-28 15:34N 34°16' E 132°23'2 0.1
2014-Sep-28 03:34N 34°15' E 132°21'6 5.5
2014-Sep-28 02:32N 34°21' E 132°22'1 1.4
2014-Sep-28 01:33N 34°20' E 132°22'6 5.5
2014-Sep-28 00:31N 34°21' E 132°29'0 0.0
2014-Sep-27 23:33N 34°21' E 132°29'2 1.6
2014-Sep-27 22:31N 34°21' E 132°31'0 0.0
2014-Sep-27 21:33N 34°21' E 132°31'0 0.1
2014-Sep-27 20:33N 34°21' E 132°31'0 0.0
2014-Sep-27 19:34N 34°21' E 132°31'0 0.0
2014-Sep-27 18:34N 34°21' E 132°31'0 0.0
2014-Sep-27 17:33N 34°21' E 132°31'0 0.0
2014-Sep-27 16:33N 34°21' E 132°31'0 0.0
2014-Sep-27 15:33N 34°21' E 132°31'2 2.3
2014-Sep-27 14:33N 34°21' E 132°28'1614.4
2014-Sep-27 13:28N 34°05' E 132°27'36813.4
2014-Sep-26 10:04N 35°13' E 139°46'713.2
2014-Sep-26 09:33N 35°19' E 139°43'1616.3
2014-Sep-26 08:33N 35°32' E 139°56'2 0.2
2014-Sep-25 20:33N 35°30' E 139°54'1414.4
2014-Sep-25 19:33N 35°18' E 139°44'1412.9
2014-Sep-25 18:28N 35°05' E 139°43'36510.8
2014-Sep-24 08:33N 34°16' E 132°23'7 7.1
2014-Sep-24 07:33N 34°21' E 132°29'0 0.0
2014-Sep-24 06:31N 34°21' E 132°29'0 0.0
2014-Sep-24 05:31N 34°21' E 132°29'0 0.0
2014-Sep-24 04:31N 34°21' E 132°29'2 1.9
2014-Sep-24 03:34N 34°20' E 132°27'5 4.7
2014-Sep-24 02:34N 34°21' E 132°22'6 5.8
2014-Sep-24 01:33N 34°21' E 132°29'0 0.0
2014-Sep-24 00:31N 34°21' E 132°29'0 0.5
2014-Sep-23 23:33N 34°21' E 132°29'1 1.3
2014-Sep-23 22:33N 34°21' E 132°31'0 0.0
2014-Sep-23 21:32N 34°21' E 132°31'0 0.0
2014-Sep-23 20:33N 34°21' E 132°31'0 0.0
2014-Sep-23 19:33N 34°21' E 132°31'0 0.0
2014-Sep-23 18:33N 34°21' E 132°31'0 0.0
2014-Sep-23 17:33N 34°21' E 132°31'0 0.0
2014-Sep-23 16:33N 34°21' E 132°31'0 0.0
2014-Sep-23 15:33N 34°21' E 132°31'0 0.0
2014-Sep-23 14:33N 34°21' E 132°31'0 0.0
2014-Sep-23 13:33N 34°21' E 132°31'0 0.1
2014-Sep-23 12:33N 34°21' E 132°31'0 0.0
2014-Sep-23 11:31N 34°21' E 132°31'1010.6
2014-Sep-23 10:33N 34°14' E 132°22'1614.6
2014-Sep-23 09:27N 34°04' E 132°37'35915.7
2014-Sep-22 10:32N 35°11' E 139°45'1313.0
2014-Sep-22 09:34N 35°24' E 139°42'15 1.0
2014-Sep-21 18:33N 35°32' E 139°58'1616.0
2014-Sep-21 17:33N 35°21' E 139°45'1513.8
2014-Sep-21 16:29N 35°06' E 139°43'  
Track history (hours):
 
Tides and Currents Weather Stations Pressure Air Temp Water Temp Dewpoint Dewpoint Depression Visibility Wind Speed Wind Dir Waves Ship Positions

Toyo Maru

Last reported at 2014-Oct-01 09:34 UTC. Time now 2014-Oct-01 10:31 UTC.
Position N 35°23' E 139°42'.

Length 125 m; draft 6 m.

Type: Cargo ship. MMSI: 431401953.

Date/timePositionNaut miles runAvg speedWind from/ knotsBaromVisibWave heightAir tempDewpointWater temp
2014-Oct-01 09:34N 35°23' E 139°42'17 1.4
2014-Sep-30 21:09N 35°33' E 139°59'812.9
2014-Sep-30 20:33N 35°28' E 139°52'1312.5
2014-Sep-30 19:33N 35°17' E 139°45'1414.3
2014-Sep-30 18:33N 35°03' E 139°42'249 9.1
2014-Sep-29 15:19N 34°04' E 134°48'12113.8
2014-Sep-29 06:33N 34°16' E 132°22'8 8.0
2014-Sep-29 05:33N 34°21' E 132°29'0 0.0
2014-Sep-29 04:32N 34°21' E 132°29'0 0.0
2014-Sep-29 03:32N 34°21' E 132°29'0 0.0
2014-Sep-29 02:32N 34°21' E 132°29'0 0.0
2014-Sep-29 01:32N 34°21' E 132°29'0 0.0
2014-Sep-29 00:32N 34°21' E 132°29'0 0.0
2014-Sep-28 23:32N 34°21' E 132°29'0 0.0
2014-Sep-28 22:32N 34°21' E 132°29'0 0.0
2014-Sep-28 21:32N 34°21' E 132°29'0 0.0
2014-Sep-28 20:32N 34°21' E 132°29'0 0.0
2014-Sep-28 19:32N 34°21' E 132°29'0 0.0
2014-Sep-28 18:32N 34°21' E 132°29'0 0.0
2014-Sep-28 17:31N 34°21' E 132°29'0 0.0
2014-Sep-28 16:31N 34°21' E 132°29'7 7.6
2014-Sep-28 15:34N 34°16' E 132°23'2 0.1
2014-Sep-28 03:34N 34°15' E 132°21'6 5.5
2014-Sep-28 02:32N 34°21' E 132°22'1 1.4
2014-Sep-28 01:33N 34°20' E 132°22'6 5.5
2014-Sep-28 00:31N 34°21' E 132°29'0 0.0
2014-Sep-27 23:33N 34°21' E 132°29'2 1.6
2014-Sep-27 22:31N 34°21' E 132°31'0 0.0
2014-Sep-27 21:33N 34°21' E 132°31'0 0.1
2014-Sep-27 20:33N 34°21' E 132°31'0 0.0
2014-Sep-27 19:34N 34°21' E 132°31'0 0.0
2014-Sep-27 18:34N 34°21' E 132°31'0 0.0
2014-Sep-27 17:33N 34°21' E 132°31'0 0.0
2014-Sep-27 16:33N 34°21' E 132°31'0 0.0
2014-Sep-27 15:33N 34°21' E 132°31'2 2.3
2014-Sep-27 14:33N 34°21' E 132°28'1614.4
2014-Sep-27 13:28N 34°05' E 132°27'36813.4
2014-Sep-26 10:04N 35°13' E 139°46'713.2
2014-Sep-26 09:33N 35°19' E 139°43'1616.3
2014-Sep-26 08:33N 35°32' E 139°56'2 0.2
2014-Sep-25 20:33N 35°30' E 139°54'1414.4
2014-Sep-25 19:33N 35°18' E 139°44'1412.9
2014-Sep-25 18:28N 35°05' E 139°43'36510.8
2014-Sep-24 08:33N 34°16' E 132°23'7 7.1
2014-Sep-24 07:33N 34°21' E 132°29'0 0.0
2014-Sep-24 06:31N 34°21' E 132°29'0 0.0
2014-Sep-24 05:31N 34°21' E 132°29'0 0.0
2014-Sep-24 04:31N 34°21' E 132°29'2 1.9
2014-Sep-24 03:34N 34°20' E 132°27'5 4.7
2014-Sep-24 02:34N 34°21' E 132°22'6 5.8
2014-Sep-24 01:33N 34°21' E 132°29'0 0.0
2014-Sep-24 00:31N 34°21' E 132°29'0 0.5
2014-Sep-23 23:33N 34°21' E 132°29'1 1.3
2014-Sep-23 22:33N 34°21' E 132°31'0 0.0
2014-Sep-23 21:32N 34°21' E 132°31'0 0.0
2014-Sep-23 20:33N 34°21' E 132°31'0 0.0
2014-Sep-23 19:33N 34°21' E 132°31'0 0.0
2014-Sep-23 18:33N 34°21' E 132°31'0 0.0
2014-Sep-23 17:33N 34°21' E 132°31'0 0.0
2014-Sep-23 16:33N 34°21' E 132°31'0 0.0
2014-Sep-23 15:33N 34°21' E 132°31'0 0.0
2014-Sep-23 14:33N 34°21' E 132°31'0 0.0
2014-Sep-23 13:33N 34°21' E 132°31'0 0.1
2014-Sep-23 12:33N 34°21' E 132°31'0 0.0
2014-Sep-23 11:31N 34°21' E 132°31'1010.6
2014-Sep-23 10:33N 34°14' E 132°22'1614.6
2014-Sep-23 09:27N 34°04' E 132°37'35915.7
2014-Sep-22 10:32N 35°11' E 139°45'1313.0
2014-Sep-22 09:34N 35°24' E 139°42'15 1.0
2014-Sep-21 18:33N 35°32' E 139°58'1616.0
2014-Sep-21 17:33N 35°21' E 139°45'1513.8
2014-Sep-21 16:29N 35°06' E 139°43'  

Dump ship's entire track history